createdAt,value
2023-04-10T00:00:50.009Z,13.2
2023-04-10T00:02:50.065Z,13.2
2023-04-10T00:04:50.147Z,13.1
2023-04-10T00:06:50.072Z,13.1
2023-04-10T00:08:49.969Z,13
2023-04-10T00:10:50.011Z,13
2023-04-10T00:12:49.974Z,13
2023-04-10T00:14:49.966Z,12.9
2023-04-10T00:16:49.986Z,12.9
2023-04-10T00:18:49.979Z,12.8
2023-04-10T00:20:49.951Z,12.9
2023-04-10T00:22:49.942Z,12.8
2023-04-10T00:24:49.946Z,12.7
2023-04-10T00:26:49.949Z,12.7
2023-04-10T00:28:49.973Z,12.7
2023-04-10T00:30:49.941Z,12.7
2023-04-10T00:32:49.963Z,12.7
2023-04-10T00:34:49.943Z,12.6
2023-04-10T00:36:49.969Z,12.6
2023-04-10T00:38:49.949Z,12.6
2023-04-10T00:40:49.944Z,12.6
2023-04-10T00:42:49.948Z,12.6
2023-04-10T00:44:49.948Z,12.5
2023-04-10T00:46:49.897Z,12.5
2023-04-10T00:48:49.979Z,12.4
2023-04-10T00:50:50.024Z,12.5
2023-04-10T00:52:49.914Z,12.4
2023-04-10T00:54:49.914Z,12.4
2023-04-10T00:56:49.919Z,12.3
2023-04-10T00:58:49.959Z,12.3
2023-04-10T01:00:49.914Z,12.3
2023-04-10T01:02:49.995Z,12.3
2023-04-10T01:04:49.893Z,12.3
2023-04-10T01:06:50.238Z,12.2
2023-04-10T01:08:49.913Z,12.2
2023-04-10T01:10:50.054Z,12.2
2023-04-10T01:12:49.900Z,12.2
2023-04-10T01:14:49.921Z,12.1
2023-04-10T01:16:49.995Z,12.1
2023-04-10T01:18:49.888Z,12
2023-04-10T01:20:49.884Z,12.1
2023-04-10T01:22:49.872Z,12
2023-04-10T01:24:49.886Z,12
2023-04-10T01:26:49.870Z,12
2023-04-10T01:28:49.882Z,11.9
2023-04-10T01:30:50.084Z,12
2023-04-10T01:32:49.876Z,11.9
2023-04-10T01:34:49.885Z,11.9
2023-04-10T01:36:49.947Z,11.9
2023-04-10T01:38:49.874Z,11.8
2023-04-10T01:40:49.872Z,11.9
2023-04-10T01:42:51.169Z,11.8
2023-04-10T01:44:49.869Z,11.8
2023-04-10T01:46:49.998Z,11.7
2023-04-10T01:48:49.840Z,11.7
2023-04-10T01:50:49.870Z,11.7
2023-04-10T01:52:49.926Z,11.7
2023-04-10T01:54:49.929Z,11.6
2023-04-10T01:56:49.896Z,11.6
2023-04-10T01:58:49.811Z,11.6
2023-04-10T02:00:49.848Z,11.6
2023-04-10T02:02:49.983Z,11.6
2023-04-10T02:04:49.865Z,11.6
2023-04-10T02:06:49.833Z,11.5
2023-04-10T02:08:49.829Z,11.5
2023-04-10T02:10:51.284Z,11.5
2023-04-10T02:12:49.801Z,11.5
2023-04-10T02:14:49.803Z,11.4
2023-04-10T02:16:49.799Z,11.4
2023-04-10T02:18:49.875Z,11.4
2023-04-10T02:20:49.831Z,11.5
2023-04-10T02:22:49.825Z,11.4
2023-04-10T02:24:49.796Z,11.4
2023-04-10T02:26:49.806Z,11.4
2023-04-10T02:28:49.794Z,11.3
2023-04-10T02:30:49.894Z,11.4
2023-04-10T02:32:49.802Z,11.3
2023-04-10T02:34:49.778Z,11.3
2023-04-10T02:36:49.897Z,11.3
2023-04-10T02:38:49.840Z,11.3
2023-04-10T02:40:49.777Z,11.3
2023-04-10T02:42:49.758Z,11.3
2023-04-10T02:44:49.775Z,11.2
2023-04-10T02:46:49.833Z,11.2
2023-04-10T02:48:49.767Z,11.2
2023-04-10T02:50:51.077Z,11.2
2023-04-10T02:52:49.778Z,11.2
2023-04-10T02:54:49.760Z,11.2
2023-04-10T02:56:49.785Z,11.1
2023-04-10T02:58:49.806Z,11.1
2023-04-10T03:00:49.759Z,11.2
2023-04-10T03:02:50.138Z,11.1
2023-04-10T03:04:49.789Z,11.1
2023-04-10T03:06:49.751Z,11.1
2023-04-10T03:08:49.754Z,11
2023-04-10T03:10:49.796Z,11.1
2023-04-10T03:12:49.733Z,11
2023-04-10T03:14:49.773Z,11
2023-04-10T03:16:49.744Z,11
2023-04-10T03:18:49.713Z,10.9
2023-04-10T03:20:49.723Z,11
2023-04-10T03:22:49.720Z,10.9
2023-04-10T03:24:49.730Z,10.9
2023-04-10T03:26:49.705Z,10.9
2023-04-10T03:28:49.693Z,10.9
2023-04-10T03:30:49.718Z,10.9
2023-04-10T03:32:49.690Z,10.9
2023-04-10T03:34:49.711Z,10.8
2023-04-10T03:36:49.725Z,10.8
2023-04-10T03:38:49.726Z,10.8
2023-04-10T03:40:49.715Z,10.8
2023-04-10T03:42:49.693Z,10.8
2023-04-10T03:44:49.707Z,10.7
2023-04-10T03:46:49.730Z,10.7
2023-04-10T03:48:49.744Z,10.7
2023-04-10T03:50:49.704Z,10.7
2023-04-10T03:52:49.701Z,10.7
2023-04-10T03:54:49.706Z,10.7
2023-04-10T03:56:49.679Z,10.6
2023-04-10T03:58:49.698Z,10.6
2023-04-10T04:00:49.694Z,10.7
2023-04-10T04:02:49.900Z,10.6
2023-04-10T04:04:49.811Z,10.6
2023-04-10T04:06:49.675Z,10.6
2023-04-10T04:08:49.648Z,10.5
2023-04-10T04:10:49.686Z,10.6
2023-04-10T04:12:49.652Z,10.5
2023-04-10T04:14:49.650Z,10.5
2023-04-10T04:16:49.671Z,10.5
2023-04-10T04:18:49.656Z,10.5
2023-04-10T04:20:49.630Z,10.5
2023-04-10T04:22:49.656Z,10.5
2023-04-10T04:24:49.629Z,10.4
2023-04-10T04:26:49.623Z,10.4
2023-04-10T04:28:49.649Z,10.4
2023-04-10T04:30:49.633Z,10.4
2023-04-10T04:32:49.704Z,10.4
2023-04-10T04:34:49.684Z,10.3
2023-04-10T04:36:49.637Z,10.3
2023-04-10T04:38:49.613Z,10.3
2023-04-10T04:40:49.636Z,10.3
2023-04-10T04:42:49.658Z,10.3
2023-04-10T04:44:49.627Z,10.2
2023-04-10T04:46:49.613Z,10.2
2023-04-10T04:48:49.604Z,10.2
2023-04-10T04:50:49.635Z,10.3
2023-04-10T04:52:49.668Z,10.2
2023-04-10T04:54:49.631Z,10.2
2023-04-10T04:56:49.635Z,10.1
2023-04-10T04:58:49.639Z,10.1
2023-04-10T05:00:50.014Z,10.2
2023-04-10T05:02:49.903Z,10.1
2023-04-10T05:04:49.762Z,10.1
2023-04-10T05:06:49.887Z,10.1
2023-04-10T05:08:49.808Z,10.1
2023-04-10T05:10:49.901Z,10.1
2023-04-10T05:12:49.677Z,10.1
2023-04-10T05:14:49.663Z,10
2023-04-10T05:16:49.701Z,10
2023-04-10T05:18:49.807Z,10
2023-04-10T05:20:49.738Z,10
2023-04-10T05:22:49.757Z,10
2023-04-10T05:24:49.729Z,10
2023-04-10T05:26:49.779Z,9.9
2023-04-10T05:28:49.673Z,9.9
2023-04-10T05:30:49.645Z,10
2023-04-10T05:32:49.812Z,10
2023-04-10T05:34:49.701Z,9.9
2023-04-10T05:36:49.718Z,9.9
2023-04-10T05:38:49.649Z,9.9
2023-04-10T05:40:50.905Z,9.9
2023-04-10T05:42:49.565Z,9.9
2023-04-10T05:44:49.559Z,9.9
2023-04-10T05:46:49.930Z,9.8
2023-04-10T05:48:49.990Z,9.8
2023-04-10T05:50:49.746Z,9.9
2023-04-10T05:52:50.033Z,9.8
2023-04-10T05:54:49.949Z,9.8
2023-04-10T05:56:49.682Z,9.8
2023-04-10T05:58:49.971Z,9.7
2023-04-10T06:00:49.800Z,9.8
2023-04-10T06:02:49.934Z,9.7
2023-04-10T06:04:49.767Z,9.7
2023-04-10T06:06:49.700Z,9.6
2023-04-10T06:08:49.769Z,9.6
2023-04-10T06:10:49.787Z,9.7
2023-04-10T06:12:50.025Z,9.6
2023-04-10T06:14:49.847Z,9.6
2023-04-10T06:16:49.706Z,9.6
2023-04-10T06:18:49.793Z,9.6
2023-04-10T06:20:49.744Z,9.6
2023-04-10T06:22:51.165Z,9.6
2023-04-10T06:24:49.757Z,9.6
2023-04-10T06:26:49.770Z,9.5
2023-04-10T06:28:49.877Z,9.5
2023-04-10T06:30:49.833Z,9.6
2023-04-10T06:32:49.795Z,9.5
2023-04-10T06:34:49.737Z,9.5
2023-04-10T06:36:49.794Z,9.5
2023-04-10T06:38:49.763Z,9.5
2023-04-10T06:40:49.777Z,9.5
2023-04-10T06:42:49.762Z,9.5
2023-04-10T06:44:49.727Z,9.4
2023-04-10T06:46:49.772Z,9.4
2023-04-10T06:48:49.730Z,9.4
2023-04-10T06:50:49.702Z,9.4
2023-04-10T06:52:49.801Z,9.3
2023-04-10T06:54:49.751Z,9.3
2023-04-10T06:56:49.793Z,9.3
2023-04-10T06:58:49.818Z,9.3
2023-04-10T07:00:49.772Z,9.3
2023-04-10T07:02:49.811Z,9.3
2023-04-10T07:04:49.846Z,9.3
2023-04-10T07:06:49.738Z,9.3
2023-04-10T07:08:49.838Z,9.2
2023-04-10T07:10:49.692Z,9.3
2023-04-10T07:12:49.753Z,9.3
2023-04-10T07:14:49.725Z,9.3
2023-04-10T07:16:49.771Z,9.2
2023-04-10T07:18:49.700Z,9.2
2023-04-10T07:20:49.736Z,9.3
2023-04-10T07:22:49.703Z,9.2
2023-04-10T07:24:49.731Z,9.1
2023-04-10T07:26:49.566Z,9.1
2023-04-10T07:28:49.708Z,9.1
2023-04-10T07:30:49.795Z,9.1
2023-04-10T07:32:49.854Z,9.1
2023-04-10T07:34:49.838Z,9
2023-04-10T07:36:49.727Z,9
2023-04-10T07:38:49.684Z,9
2023-04-10T07:40:49.634Z,9
2023-04-10T07:42:50.021Z,9
2023-04-10T07:44:49.827Z,9
2023-04-10T07:46:49.715Z,9
2023-04-10T07:48:51.079Z,8.9
2023-04-10T07:50:49.779Z,9
2023-04-10T07:52:49.768Z,8.9
2023-04-10T07:54:49.728Z,8.9
2023-04-10T07:56:49.650Z,8.9
2023-04-10T07:58:49.774Z,8.8
2023-04-10T08:00:49.745Z,8.9
2023-04-10T08:02:49.784Z,8.8
2023-04-10T08:04:49.783Z,8.8
2023-04-10T08:06:49.828Z,8.8
2023-04-10T08:08:49.657Z,8.8
2023-04-10T08:10:49.653Z,8.8
2023-04-10T08:12:49.570Z,8.8
2023-04-10T08:14:49.508Z,8.7
2023-04-10T08:16:49.805Z,8.7
2023-04-10T08:18:49.645Z,8.7
2023-04-10T08:20:50.923Z,8.7
2023-04-10T08:22:49.746Z,8.7
2023-04-10T08:24:49.623Z,8.6
2023-04-10T08:26:49.732Z,8.6
2023-04-10T08:28:49.609Z,8.6
2023-04-10T08:30:49.655Z,8.7
2023-04-10T08:32:49.718Z,8.6
2023-04-10T08:34:49.701Z,8.6
2023-04-10T08:36:49.638Z,8.6
2023-04-10T08:38:49.671Z,8.5
2023-04-10T08:40:49.654Z,8.6
2023-04-10T08:42:49.718Z,8.5
2023-04-10T08:44:49.570Z,8.5
2023-04-10T08:46:49.625Z,8.5
2023-04-10T08:48:49.613Z,8.5
2023-04-10T08:50:49.630Z,8.5
2023-04-10T08:52:49.585Z,8.5
2023-04-10T08:54:49.608Z,8.4
2023-04-10T08:56:49.559Z,8.4
2023-04-10T08:58:49.612Z,8.4
2023-04-10T09:00:49.660Z,8.4
2023-04-10T09:02:49.612Z,8.4
2023-04-10T09:04:49.582Z,8.4
2023-04-10T09:06:49.617Z,8.3
2023-04-10T09:08:49.618Z,8.3
2023-04-10T09:10:49.615Z,8.3
2023-04-10T09:12:49.610Z,8.3
2023-04-10T09:14:49.439Z,8.3
2023-04-10T09:16:49.546Z,8.3
2023-04-10T09:18:49.424Z,8.3
2023-04-10T09:20:49.538Z,8.3
2023-04-10T09:22:49.504Z,8.3
2023-04-10T09:24:49.441Z,8.3
2023-04-10T09:26:49.421Z,8.3
2023-04-10T09:28:49.533Z,8.2
2023-04-10T09:30:49.626Z,8.3
2023-04-10T09:32:49.556Z,8.2
2023-04-10T09:34:49.551Z,8.2
2023-04-10T09:36:49.588Z,8.2
2023-04-10T09:38:49.531Z,8.2
2023-04-10T09:40:49.354Z,8.2
2023-04-10T09:42:49.563Z,8.2
2023-04-10T09:44:49.567Z,8.1
2023-04-10T09:46:49.380Z,8.1
2023-04-10T09:48:49.387Z,8.1
2023-04-10T09:50:49.655Z,8.2
2023-04-10T09:52:49.389Z,8.1
2023-04-10T09:54:49.389Z,8.1
2023-04-10T09:56:49.460Z,8
2023-04-10T09:58:49.499Z,8
2023-04-10T10:00:49.496Z,8.1
2023-04-10T10:02:49.444Z,8
2023-04-10T10:04:49.404Z,8
2023-04-10T10:06:49.376Z,8
2023-04-10T10:08:49.575Z,8
2023-04-10T10:10:49.475Z,8
2023-04-10T10:12:49.502Z,8
2023-04-10T10:14:49.427Z,8
2023-04-10T10:16:49.477Z,8
2023-04-10T10:18:49.488Z,8
2023-04-10T10:20:49.539Z,8
2023-04-10T10:22:49.459Z,8
2023-04-10T10:24:49.459Z,8
2023-04-10T10:26:49.468Z,8
2023-04-10T10:28:49.469Z,8
2023-04-10T10:30:49.491Z,8.1
2023-04-10T10:32:49.506Z,8.1
2023-04-10T10:34:49.456Z,8.1
2023-04-10T10:36:49.510Z,8.1
2023-04-10T10:38:49.377Z,8.1
2023-04-10T10:40:49.396Z,8.2
2023-04-10T10:42:49.347Z,8.1
2023-04-10T10:44:49.350Z,8.1
2023-04-10T10:46:49.363Z,8.1
2023-04-10T10:48:49.268Z,8.1
2023-04-10T10:50:49.317Z,8.2
2023-04-10T10:52:49.304Z,8.2
2023-04-10T10:54:57.223Z,8.2
2023-04-10T10:56:49.287Z,8.2
2023-04-10T10:58:49.281Z,8.2
2023-04-10T11:00:49.294Z,8.3
2023-04-10T11:02:49.377Z,8.3
2023-04-10T11:04:49.254Z,8.3
2023-04-10T11:06:49.266Z,8.3
2023-04-10T11:08:49.271Z,8.3
2023-04-10T11:10:49.266Z,8.3
2023-04-10T11:12:49.272Z,8.3
2023-04-10T11:14:49.308Z,8.3
2023-04-10T11:16:49.349Z,8.3
2023-04-10T11:18:56.489Z,8.3
2023-04-10T11:20:49.150Z,8.4
2023-04-10T11:22:49.138Z,8.4
2023-04-10T11:24:49.141Z,8.4
2023-04-10T11:26:49.115Z,8.4
2023-04-10T11:28:49.160Z,8.4
2023-04-10T11:30:49.137Z,8.5
2023-04-10T11:32:49.168Z,8.5
2023-04-10T11:34:49.098Z,8.5
2023-04-10T11:36:49.115Z,8.5
2023-04-10T11:38:49.133Z,8.5
2023-04-10T11:40:49.152Z,8.6
2023-04-10T11:42:49.120Z,8.6
2023-04-10T11:44:49.104Z,8.6
2023-04-10T11:46:49.082Z,8.6
2023-04-10T11:48:49.106Z,8.7
2023-04-10T11:50:49.067Z,8.8
2023-04-10T11:52:49.151Z,8.8
2023-04-10T11:54:49.095Z,8.8
2023-04-10T11:56:49.048Z,8.9
2023-04-10T11:58:49.102Z,8.9
2023-04-10T12:00:49.068Z,9
2023-04-10T12:02:49.147Z,9.1
2023-04-10T12:04:49.213Z,9.1
2023-04-10T12:06:49.063Z,9.2
2023-04-10T12:08:49.083Z,9.2
2023-04-10T12:10:49.125Z,9.4
2023-04-10T12:12:49.069Z,9.4
2023-04-10T12:14:49.052Z,9.4
2023-04-10T12:16:49.052Z,9.5
2023-04-10T12:18:49.060Z,9.6
2023-04-10T12:20:49.051Z,9.7
2023-04-10T12:22:49.041Z,9.9
2023-04-10T12:24:49.020Z,9.9
2023-04-10T12:26:49.057Z,10
2023-04-10T12:28:49.028Z,10.1
2023-04-10T12:30:49.080Z,10.2
2023-04-10T12:32:49.080Z,10.3
2023-04-10T12:34:49.028Z,10.5
2023-04-10T12:36:49.074Z,10.8
2023-04-10T12:38:49.060Z,11.2
2023-04-10T12:40:48.969Z,11.5
2023-04-10T12:42:49.183Z,11.8
2023-04-10T12:44:49.060Z,11.9
2023-04-10T12:46:49.088Z,12
2023-04-10T12:48:49.127Z,12.1
2023-04-10T12:50:48.969Z,12.6
2023-04-10T12:52:48.999Z,12.8
2023-04-10T12:54:49.011Z,13.1
2023-04-10T12:56:48.997Z,13.4
2023-04-10T12:58:48.996Z,13.8
2023-04-10T13:00:49.010Z,14.1
2023-04-10T13:02:49.287Z,14
2023-04-10T13:04:49.032Z,14
2023-04-10T13:06:48.989Z,14
2023-04-10T13:08:49.021Z,14
2023-04-10T13:10:48.983Z,14.1
2023-04-10T13:12:48.998Z,14.1
2023-04-10T13:14:49.226Z,14.1
2023-04-10T13:16:49.132Z,14
2023-04-10T13:18:48.996Z,14
2023-04-10T13:20:49.046Z,14
2023-04-10T13:22:49.027Z,13.9
2023-04-10T13:24:49.012Z,13.9
2023-04-10T13:26:48.984Z,13.9
2023-04-10T13:28:49.037Z,14
2023-04-10T13:30:49.012Z,14.1
2023-04-10T13:32:49.008Z,14
2023-04-10T13:34:48.973Z,14.3
2023-04-10T13:36:49.020Z,14.3
2023-04-10T13:38:48.982Z,14.4
2023-04-10T13:40:48.942Z,14.4
2023-04-10T13:42:48.937Z,14.4
2023-04-10T13:44:48.946Z,14.5
2023-04-10T13:46:48.989Z,14.6
2023-04-10T13:48:48.952Z,14.4
2023-04-10T13:50:48.940Z,14.5
2023-04-10T13:52:51.562Z,14.5
2023-04-10T13:54:48.945Z,14.6
2023-04-10T13:56:48.930Z,14.6
2023-04-10T13:58:48.939Z,14.6
2023-04-10T14:00:48.956Z,14.9
2023-04-10T14:02:49.035Z,15.1
2023-04-10T14:04:49.014Z,15.1
2023-04-10T14:06:50.571Z,15.1
2023-04-10T14:08:48.908Z,15
2023-04-10T14:10:48.908Z,15.1
2023-04-10T14:12:48.903Z,15
2023-04-10T14:14:49.089Z,15
2023-04-10T14:16:50.028Z,15.2
2023-04-10T14:18:49.273Z,15.1
2023-04-10T14:20:48.902Z,15.3
2023-04-10T14:22:48.940Z,15.4
2023-04-10T14:24:49.031Z,15.4
2023-04-10T14:26:48.911Z,15.5
2023-04-10T14:28:48.910Z,15.5
2023-04-10T14:30:48.869Z,15.5
2023-04-10T14:32:49.000Z,15.5
2023-04-10T14:34:48.901Z,15.5
2023-04-10T14:36:48.911Z,15.6
2023-04-10T14:38:48.903Z,15.6
2023-04-10T14:40:48.881Z,15.7
2023-04-10T14:42:48.881Z,15.9
2023-04-10T14:44:48.917Z,16
2023-04-10T14:46:48.868Z,15.9
2023-04-10T14:48:49.759Z,16
2023-04-10T14:50:48.854Z,16
2023-04-10T14:52:48.849Z,16.2
2023-04-10T14:54:48.888Z,16.2
2023-04-10T14:56:48.878Z,16.5
2023-04-10T14:58:48.901Z,16.3
2023-04-10T15:00:48.890Z,16.3
2023-04-10T15:02:49.014Z,16.3
2023-04-10T15:04:48.842Z,16.3
2023-04-10T15:06:48.903Z,16.3
2023-04-10T15:08:48.863Z,16.3
2023-04-10T15:10:48.842Z,16.4
2023-04-10T15:12:48.864Z,16.4
2023-04-10T15:14:48.906Z,16.6
2023-04-10T15:16:48.935Z,16.6
2023-04-10T15:18:48.851Z,16.7
2023-04-10T15:20:48.815Z,16.6
2023-04-10T15:22:48.827Z,16.5
2023-04-10T15:24:50.707Z,16.5
2023-04-10T15:26:48.846Z,16.6
2023-04-10T15:28:48.825Z,16.6
2023-04-10T15:30:48.899Z,16.9
2023-04-10T15:32:48.946Z,16.8
2023-04-10T15:34:48.804Z,17
2023-04-10T15:36:48.793Z,16.9
2023-04-10T15:38:50.138Z,16.9
2023-04-10T15:40:48.826Z,16.9
2023-04-10T15:42:48.943Z,17.1
2023-04-10T15:44:49.276Z,17.1
2023-04-10T15:46:48.840Z,17.1
2023-04-10T15:48:48.807Z,17.2
2023-04-10T15:50:48.779Z,17.2
2023-04-10T15:52:48.775Z,17.3
2023-04-10T15:54:48.801Z,17.3
2023-04-10T15:56:48.798Z,17.2
2023-04-10T15:58:48.831Z,17.2
2023-04-10T16:00:48.813Z,17.3
2023-04-10T16:02:48.860Z,17.2
2023-04-10T16:04:48.919Z,17.3
2023-04-10T16:06:48.796Z,17.3
2023-04-10T16:08:48.776Z,17.2
2023-04-10T16:10:48.794Z,17.3
2023-04-10T16:12:48.769Z,17.5
2023-04-10T16:14:48.764Z,17.4
2023-04-10T16:16:48.744Z,17.4
2023-04-10T16:18:48.838Z,17.5
2023-04-10T16:20:48.769Z,17.5
2023-04-10T16:22:48.788Z,17.7
2023-04-10T16:24:48.763Z,17.7
2023-04-10T16:26:48.734Z,17.7
2023-04-10T16:28:48.825Z,17.8
2023-04-10T16:30:48.743Z,17.8
2023-04-10T16:32:48.832Z,17.8
2023-04-10T16:34:48.735Z,17.8
2023-04-10T16:36:48.759Z,17.9
2023-04-10T16:38:48.735Z,17.9
2023-04-10T16:40:48.725Z,18.1
2023-04-10T16:42:48.742Z,18.1
2023-04-10T16:44:48.733Z,17.9
2023-04-10T16:46:48.792Z,17.8
2023-04-10T16:48:48.734Z,17.8
2023-04-10T16:50:48.856Z,17.8
2023-04-10T16:52:48.746Z,17.9
2023-04-10T16:54:48.739Z,17.9
2023-04-10T16:56:48.752Z,17.8
2023-04-10T16:58:48.700Z,17.8
2023-04-10T17:00:48.719Z,17.8
2023-04-10T17:02:48.720Z,17.8
2023-04-10T17:04:48.713Z,17.9
2023-04-10T17:06:48.723Z,18.1
2023-04-10T17:08:48.708Z,18.1
2023-04-10T17:10:48.692Z,18.2
2023-04-10T17:12:48.730Z,18.1
2023-04-10T17:14:48.681Z,18.1
2023-04-10T17:16:48.800Z,18.1
2023-04-10T17:18:48.826Z,18.3
2023-04-10T17:20:48.673Z,18.2
2023-04-10T17:22:48.727Z,18.3
2023-04-10T17:24:48.742Z,18.4
2023-04-10T17:26:48.691Z,18.3
2023-04-10T17:28:50.151Z,18.2
2023-04-10T17:30:48.668Z,18.3
2023-04-10T17:32:48.729Z,18.3
2023-04-10T17:34:48.698Z,18.2
2023-04-10T17:36:48.700Z,18.3
2023-04-10T17:38:48.684Z,18.3
2023-04-10T17:40:48.707Z,18.3
2023-04-10T17:42:48.652Z,18.4
2023-04-10T17:44:48.657Z,18.4
2023-04-10T17:46:48.683Z,18.4
2023-04-10T17:48:48.661Z,18.3
2023-04-10T17:50:48.655Z,18.5
2023-04-10T17:52:48.651Z,18.5
2023-04-10T17:54:48.677Z,18.5
2023-04-10T17:56:48.643Z,18.4
2023-04-10T17:58:48.656Z,18.5
2023-04-10T18:00:48.661Z,18.5
2023-04-10T18:02:48.813Z,18.6
2023-04-10T18:04:48.648Z,18.6
2023-04-10T18:06:48.654Z,18.9
2023-04-10T18:08:48.635Z,18.6
2023-04-10T18:10:48.656Z,18.6
2023-04-10T18:12:48.697Z,18.7
2023-04-10T18:14:48.659Z,18.6
2023-04-10T18:16:48.695Z,18.6
2023-04-10T18:18:48.627Z,18.5
2023-04-10T18:20:48.629Z,18.5
2023-04-10T18:22:48.639Z,18.6
2023-04-10T18:24:48.627Z,18.6
2023-04-10T18:26:48.593Z,18.6
2023-04-10T18:28:48.743Z,18.7
2023-04-10T18:30:48.681Z,18.6
2023-04-10T18:32:48.635Z,18.6
2023-04-10T18:34:48.597Z,18.7
2023-04-10T18:36:49.644Z,18.6
2023-04-10T18:38:48.594Z,18.6
2023-04-10T18:40:48.681Z,18.5
2023-04-10T18:42:48.631Z,18.5
2023-04-10T18:44:48.620Z,18.5
2023-04-10T18:46:53.947Z,18.6
2023-04-10T18:48:48.580Z,18.9
2023-04-10T18:50:48.642Z,18.8
2023-04-10T18:52:48.562Z,18.7
2023-04-10T18:54:48.609Z,18.7
2023-04-10T18:56:48.629Z,18.7
2023-04-10T18:58:49.813Z,18.6
2023-04-10T19:00:48.573Z,18.6
2023-04-10T19:02:48.648Z,18.7
2023-04-10T19:04:48.700Z,18.7
2023-04-10T19:06:48.623Z,18.8
2023-04-10T19:08:48.623Z,18.8
2023-04-10T19:10:48.573Z,18.8
2023-04-10T19:12:48.554Z,18.9
2023-04-10T19:14:48.627Z,18.8
2023-04-10T19:16:48.549Z,18.8
2023-04-10T19:18:48.613Z,18.8
2023-04-10T19:20:49.631Z,18.9
2023-04-10T19:22:48.570Z,18.9
2023-04-10T19:24:48.589Z,18.9
2023-04-10T19:26:48.565Z,18.9
2023-04-10T19:28:48.574Z,18.8
2023-04-10T19:30:48.563Z,18.9
2023-04-10T19:32:48.595Z,18.9
2023-04-10T19:34:48.546Z,18.8
2023-04-10T19:36:48.507Z,18.8
2023-04-10T19:38:48.634Z,18.7
2023-04-10T19:40:48.525Z,18.8
2023-04-10T19:42:48.555Z,18.8
2023-04-10T19:44:48.602Z,18.7
2023-04-10T19:46:48.566Z,18.8
2023-04-10T19:48:48.573Z,18.7
2023-04-10T19:50:48.494Z,18.7
2023-04-10T19:52:48.478Z,18.8
2023-04-10T19:54:48.628Z,18.7
2023-04-10T19:56:48.495Z,18.6
2023-04-10T19:58:48.521Z,18.6
2023-04-10T20:00:48.526Z,18.7
2023-04-10T20:02:48.800Z,18.8
2023-04-10T20:04:49.010Z,18.7
2023-04-10T20:06:48.501Z,18.6
2023-04-10T20:08:48.518Z,18.5
2023-04-10T20:10:48.520Z,18.5
2023-04-10T20:12:48.482Z,18.6
2023-04-10T20:14:48.510Z,18.5
2023-04-10T20:16:48.469Z,18.4
2023-04-10T20:18:48.590Z,18.4
2023-04-10T20:20:48.477Z,18.4
2023-04-10T20:22:48.491Z,18.5
2023-04-10T20:24:48.468Z,18.6
2023-04-10T20:26:48.469Z,18.5
2023-04-10T20:28:48.466Z,18.4
2023-04-10T20:30:48.456Z,18.4
2023-04-10T20:32:48.505Z,18.4
2023-04-10T20:34:48.473Z,18.4
2023-04-10T20:36:48.462Z,18.4
2023-04-10T20:38:48.504Z,18.4
2023-04-10T20:40:48.434Z,18.3
2023-04-10T20:42:48.461Z,18.4
2023-04-10T20:44:48.452Z,18.3
2023-04-10T20:46:48.543Z,18.3
2023-04-10T20:48:48.458Z,18.2
2023-04-10T20:50:48.558Z,18.2
2023-04-10T20:52:48.448Z,18.2
2023-04-10T20:54:48.430Z,18.2
2023-04-10T20:56:48.448Z,18.2
2023-04-10T20:58:48.439Z,18.2
2023-04-10T21:00:48.440Z,18.1
2023-04-10T21:02:48.564Z,18.1
2023-04-10T21:04:48.416Z,18.1
2023-04-10T21:06:48.436Z,18.1
2023-04-10T21:08:48.451Z,18
2023-04-10T21:10:48.438Z,18
2023-04-10T21:12:48.433Z,18
2023-04-10T21:14:48.424Z,18
2023-04-10T21:16:48.455Z,18
2023-04-10T21:18:48.445Z,17.9
2023-04-10T21:20:48.432Z,17.9
2023-04-10T21:22:48.455Z,18
2023-04-10T21:24:48.501Z,17.9
2023-04-10T21:26:48.398Z,17.9
2023-04-10T21:28:48.394Z,17.9
2023-04-10T21:30:48.548Z,17.8
2023-04-10T21:32:48.418Z,17.9
2023-04-10T21:34:48.386Z,17.8
2023-04-10T21:36:48.393Z,17.9
2023-04-10T21:38:48.424Z,17.8
2023-04-10T21:40:48.404Z,17.7
2023-04-10T21:42:48.428Z,17.8
2023-04-10T21:44:48.411Z,17.7
2023-04-10T21:46:48.379Z,17.7
2023-04-10T21:48:48.402Z,17.6
2023-04-10T21:50:48.397Z,17.6
2023-04-10T21:52:48.393Z,17.6
2023-04-10T21:54:48.375Z,17.6
2023-04-10T21:56:48.359Z,17.5
2023-04-10T21:58:48.389Z,17.5
2023-04-10T22:00:48.391Z,17.5
2023-04-10T22:02:48.433Z,17.5
2023-04-10T22:04:54.220Z,17.5
2023-04-10T22:06:48.337Z,17.4
2023-04-10T22:08:48.365Z,17.3
2023-04-10T22:10:48.363Z,17.3
2023-04-10T22:12:49.122Z,17.3
2023-04-10T22:14:48.345Z,17.2
2023-04-10T22:16:48.370Z,17.2
2023-04-10T22:18:48.344Z,17.1
2023-04-10T22:20:48.336Z,17.1
2023-04-10T22:22:48.371Z,17.1
2023-04-10T22:24:48.339Z,17
2023-04-10T22:26:48.338Z,16.9
2023-04-10T22:28:48.339Z,16.9
2023-04-10T22:30:48.342Z,16.9
2023-04-10T22:32:48.374Z,16.9
2023-04-10T22:34:48.365Z,16.8
2023-04-10T22:36:49.443Z,16.8
2023-04-10T22:38:48.335Z,16.7
2023-04-10T22:40:48.309Z,16.6
2023-04-10T22:42:48.426Z,16.7
2023-04-10T22:44:48.328Z,16.6
2023-04-10T22:46:48.408Z,16.5
2023-04-10T22:48:48.347Z,16.5
2023-04-10T22:50:48.316Z,16.4
2023-04-10T22:52:48.307Z,16.4
2023-04-10T22:54:48.342Z,16.3
2023-04-10T22:58:48.308Z,16.2
2023-04-10T23:00:48.293Z,16.1
2023-04-10T23:02:48.356Z,16.1
2023-04-10T23:04:48.355Z,16
2023-04-10T23:06:48.309Z,16
2023-04-10T23:08:48.283Z,15.9
2023-04-10T23:10:48.281Z,15.8
2023-04-10T23:12:48.319Z,15.8
2023-04-10T23:14:48.263Z,15.7
2023-04-10T23:16:48.374Z,15.7
2023-04-10T23:18:48.268Z,15.6
2023-04-10T23:20:48.281Z,15.5
2023-04-10T23:22:48.414Z,15.5
2023-04-10T23:24:48.259Z,15.4
2023-04-10T23:26:48.287Z,15.3
2023-04-10T23:28:48.301Z,15.2
2023-04-10T23:30:48.363Z,15.2
2023-04-10T23:32:48.317Z,15.2
2023-04-10T23:34:48.273Z,15.1
2023-04-10T23:36:48.282Z,15
2023-04-10T23:38:48.255Z,14.9
2023-04-10T23:40:48.291Z,14.8
2023-04-10T23:42:48.240Z,14.8
2023-04-10T23:44:48.248Z,14.7
2023-04-10T23:46:48.515Z,14.7
2023-04-10T23:48:48.281Z,14.6
2023-04-10T23:50:48.233Z,14.5
2023-04-10T23:52:48.218Z,14.5
2023-04-10T23:54:48.252Z,14.4
2023-04-10T23:56:48.242Z,14.3
2023-04-10T23:58:48.263Z,14.2
